createdAt,value
2023-02-11T00:00:14.747Z,55.67
2023-02-11T00:01:14.769Z,56.54
2023-02-11T00:02:14.805Z,56.11
2023-02-11T00:03:14.781Z,57.21
2023-02-11T00:04:14.725Z,56.96
2023-02-11T00:05:14.758Z,56.40
2023-02-11T00:06:14.748Z,55.63
2023-02-11T00:07:14.732Z,55.89
2023-02-11T00:08:14.701Z,56.59
2023-02-11T00:09:14.704Z,56.86
2023-02-11T00:10:14.700Z,57.79
2023-02-11T00:11:14.754Z,57.04
2023-02-11T00:12:14.659Z,56.88
2023-02-11T00:13:14.682Z,56.85
2023-02-11T00:14:14.680Z,55.90
2023-02-11T00:15:14.664Z,55.89
2023-02-11T00:16:14.711Z,57.41
2023-02-11T00:17:14.691Z,55.82
2023-02-11T00:18:14.660Z,57.23
2023-02-11T00:19:14.639Z,55.79
2023-02-11T00:20:14.648Z,55.70
2023-02-11T00:21:14.623Z,56.16
2023-02-11T00:22:14.606Z,56.20
2023-02-11T00:23:14.651Z,57.38
2023-02-11T00:24:14.590Z,57.04
2023-02-11T00:25:14.591Z,56.89
2023-02-11T00:26:14.593Z,58.26
2023-02-11T00:27:14.543Z,58.26
2023-02-11T00:28:14.618Z,57.24
2023-02-11T00:29:14.609Z,57.80
2023-02-11T00:30:14.583Z,57.53
2023-02-11T00:31:14.661Z,56.49
2023-02-11T00:32:14.543Z,56.72
2023-02-11T00:33:14.528Z,55.92
2023-02-11T00:34:14.551Z,56.01
2023-02-11T00:35:14.601Z,55.99
2023-02-11T00:36:14.535Z,55.46
2023-02-11T00:37:14.499Z,55.59
2023-02-11T00:38:14.514Z,56.64
2023-02-11T00:39:14.498Z,55.31
2023-02-11T00:40:14.465Z,57.24
2023-02-11T00:41:14.534Z,57.65
2023-02-11T00:42:14.493Z,55.71
2023-02-11T00:43:14.464Z,55.83
2023-02-11T00:44:14.479Z,55.72
2023-02-11T00:45:14.429Z,55.70
2023-02-11T00:46:14.512Z,55.53
2023-02-11T00:47:14.847Z,55.73
2023-02-11T00:48:14.403Z,55.51
2023-02-11T00:49:14.401Z,55.55
2023-02-11T00:50:14.410Z,56.62
2023-02-11T00:51:14.387Z,56.71
2023-02-11T00:52:14.428Z,57.45
2023-02-11T00:53:14.429Z,55.87
2023-02-11T00:54:14.408Z,55.89
2023-02-11T00:55:14.397Z,56.56
2023-02-11T00:56:14.396Z,57.38
2023-02-11T00:57:14.371Z,57.60
2023-02-11T00:58:14.365Z,58.41
2023-02-11T00:59:14.396Z,55.29
2023-02-11T01:00:14.365Z,55.46
2023-02-11T01:01:14.393Z,55.67
2023-02-11T01:02:14.326Z,56.33
2023-02-11T01:03:14.331Z,55.59
2023-02-11T01:04:14.322Z,56.48
2023-02-11T01:05:14.401Z,55.91
2023-02-11T01:06:14.321Z,56.46
2023-02-11T01:07:14.285Z,57.12
2023-02-11T01:08:14.260Z,61.37
2023-02-11T01:09:14.325Z,56.38
2023-02-11T01:10:14.317Z,56.31
2023-02-11T01:11:14.379Z,55.56
2023-02-11T01:12:14.249Z,55.78
2023-02-11T01:13:14.251Z,55.42
2023-02-11T01:14:14.267Z,55.41
2023-02-11T01:15:26.151Z,55.49
2023-02-11T01:16:14.317Z,55.51
2023-02-11T01:17:14.268Z,56.49
2023-02-11T01:18:14.250Z,58.46
2023-02-11T01:19:14.234Z,56.22
2023-02-11T01:20:14.235Z,56.37
2023-02-11T01:21:14.207Z,55.99
2023-02-11T01:22:14.320Z,55.49
2023-02-11T01:23:14.299Z,56.03
2023-02-11T01:24:14.178Z,56.68
2023-02-11T01:25:14.188Z,56.33
2023-02-11T01:26:14.179Z,55.95
2023-02-11T01:27:14.190Z,56.35
2023-02-11T01:28:14.238Z,58.93
2023-02-11T01:29:37.844Z,55.44
2023-02-11T01:30:14.174Z,55.34
2023-02-11T01:31:14.254Z,55.45
2023-02-11T01:32:14.267Z,56.85
2023-02-11T01:33:14.192Z,55.82
2023-02-11T01:34:14.142Z,57.51
2023-02-11T01:35:14.152Z,56.72
2023-02-11T01:36:14.189Z,56.28
2023-02-11T01:37:14.108Z,56.65
2023-02-11T01:38:14.093Z,55.73
2023-02-11T01:39:14.093Z,55.55
2023-02-11T01:40:14.112Z,57.46
2023-02-11T01:41:14.150Z,56.74
2023-02-11T01:42:14.109Z,56.21
2023-02-11T01:43:14.079Z,56.01
2023-02-11T01:44:14.029Z,55.98
2023-02-11T01:45:14.094Z,55.94
2023-02-11T01:46:14.132Z,55.91
2023-02-11T01:47:14.070Z,56.21
2023-02-11T01:48:14.031Z,56.39
2023-02-11T01:49:14.044Z,55.81
2023-02-11T01:50:14.013Z,55.90
2023-02-11T01:51:14.003Z,56.55
2023-02-11T01:52:14.017Z,57.37
2023-02-11T01:53:14.309Z,58.01
2023-02-11T01:54:13.993Z,55.52
2023-02-11T01:55:13.970Z,55.95
2023-02-11T01:56:13.971Z,55.60
2023-02-11T01:57:13.958Z,55.91
2023-02-11T01:58:13.971Z,57.00
2023-02-11T01:59:13.989Z,56.08
2023-02-11T02:00:13.973Z,55.98
2023-02-11T02:01:13.968Z,55.55
2023-02-11T02:02:13.937Z,55.61
2023-02-11T02:03:13.953Z,56.42
2023-02-11T02:04:13.910Z,56.48
2023-02-11T02:05:13.938Z,56.20
2023-02-11T02:06:13.913Z,55.11
2023-02-11T02:07:13.891Z,55.99
2023-02-11T02:08:13.923Z,56.34
2023-02-11T02:09:13.872Z,56.26
2023-02-11T02:10:13.875Z,55.83
2023-02-11T02:11:13.912Z,56.12
2023-02-11T02:12:13.850Z,55.87
2023-02-11T02:13:13.846Z,56.20
2023-02-11T02:14:13.857Z,55.88
2023-02-11T02:15:13.846Z,57.23
2023-02-11T02:16:13.910Z,55.89
2023-02-11T02:17:13.874Z,55.17
2023-02-11T02:18:13.806Z,55.24
2023-02-11T02:19:13.816Z,55.79
2023-02-11T02:20:13.821Z,57.27
2023-02-11T02:21:13.765Z,56.55
2023-02-11T02:22:13.796Z,55.33
2023-02-11T02:23:13.866Z,55.44
2023-02-11T02:24:14.307Z,56.05
2023-02-11T02:25:13.766Z,55.83
2023-02-11T02:26:13.783Z,55.66
2023-02-11T02:27:13.743Z,55.62
2023-02-11T02:28:13.765Z,56.01
2023-02-11T02:29:13.785Z,56.15
2023-02-11T02:30:13.784Z,55.37
2023-02-11T02:31:13.791Z,55.30
2023-02-11T02:32:13.724Z,55.42
2023-02-11T02:33:22.367Z,55.04
2023-02-11T02:34:14.777Z,55.38
2023-02-11T02:35:13.687Z,55.13
2023-02-11T02:36:13.679Z,55.10
2023-02-11T02:37:13.692Z,55.04
2023-02-11T02:38:13.683Z,55.39
2023-02-11T02:39:13.654Z,55.96
2023-02-11T02:40:13.684Z,55.48
2023-02-11T02:41:13.672Z,56.34
2023-02-11T02:42:13.642Z,56.05
2023-02-11T02:43:13.623Z,56.02
2023-02-11T02:44:13.645Z,56.06
2023-02-11T02:45:13.635Z,56.31
2023-02-11T02:46:13.729Z,55.53
2023-02-11T02:47:13.595Z,55.51
2023-02-11T02:48:13.606Z,56.41
2023-02-11T02:49:13.620Z,56.01
2023-02-11T02:50:13.589Z,56.31
2023-02-11T02:51:13.610Z,56.23
2023-02-11T02:52:13.625Z,57.29
2023-02-11T02:53:13.545Z,55.77
2023-02-11T02:54:13.572Z,55.65
2023-02-11T02:55:13.548Z,55.29
2023-02-11T02:56:13.530Z,55.08
2023-02-11T02:57:13.563Z,55.45
2023-02-11T02:58:13.928Z,55.45
2023-02-11T02:59:13.512Z,55.22
2023-02-11T03:00:13.512Z,55.78
2023-02-11T03:01:13.554Z,55.53
2023-02-11T03:02:13.518Z,55.63
2023-02-11T03:03:13.516Z,55.45
2023-02-11T03:04:13.528Z,55.57
2023-02-11T03:05:13.493Z,55.96
2023-02-11T03:06:13.516Z,57.20
2023-02-11T03:07:13.499Z,56.08
2023-02-11T03:08:13.464Z,55.62
2023-02-11T03:09:13.450Z,55.88
2023-02-11T03:10:13.490Z,56.19
2023-02-11T03:11:13.447Z,56.18
2023-02-11T03:12:13.463Z,55.71
2023-02-11T03:13:13.409Z,55.37
2023-02-11T03:14:13.466Z,55.10
2023-02-11T03:15:13.433Z,55.11
2023-02-11T03:16:13.507Z,55.53
2023-02-11T03:17:13.387Z,55.12
2023-02-11T03:18:13.410Z,54.98
2023-02-11T03:19:13.373Z,55.24
2023-02-11T03:20:13.392Z,55.57
2023-02-11T03:21:13.371Z,55.69
2023-02-11T03:22:13.436Z,55.71
2023-02-11T03:23:13.370Z,56.33
2023-02-11T03:24:13.395Z,55.45
2023-02-11T03:25:13.355Z,55.52
2023-02-11T03:26:13.351Z,58.38
2023-02-11T03:27:13.325Z,55.55
2023-02-11T03:28:13.416Z,55.85
2023-02-11T03:29:13.346Z,55.77
2023-02-11T03:30:13.304Z,55.88
2023-02-11T03:31:13.351Z,56.01
2023-02-11T03:32:13.358Z,55.98
2023-02-11T03:33:13.271Z,56.84
2023-02-11T03:34:13.333Z,55.65
2023-02-11T03:35:13.273Z,58.19
2023-02-11T03:36:13.252Z,55.73
2023-02-11T03:37:13.288Z,56.88
2023-02-11T03:38:13.268Z,56.96
2023-02-11T03:39:13.235Z,55.51
2023-02-11T03:40:13.291Z,55.04
2023-02-11T03:41:13.249Z,55.34
2023-02-11T03:42:13.254Z,55.31
2023-02-11T03:43:13.209Z,55.77
2023-02-11T03:44:13.207Z,55.61
2023-02-11T03:45:36.768Z,55.70
2023-02-11T03:46:13.362Z,55.19
2023-02-11T03:47:13.189Z,55.39
2023-02-11T03:48:13.190Z,57.50
2023-02-11T03:49:13.212Z,55.70
2023-02-11T03:50:13.175Z,58.14
2023-02-11T03:51:13.140Z,57.38
2023-02-11T03:52:43.820Z,55.56
2023-02-11T03:53:13.148Z,55.96
2023-02-11T03:54:13.161Z,55.72
2023-02-11T03:55:13.116Z,55.43
2023-02-11T03:56:13.130Z,55.37
2023-02-11T03:57:13.131Z,56.72
2023-02-11T03:58:13.155Z,56.25
2023-02-11T03:59:13.110Z,55.17
2023-02-11T04:00:19.912Z,56.34
2023-02-11T04:01:13.161Z,54.99
2023-02-11T04:02:13.057Z,57.45
2023-02-11T04:03:13.100Z,55.20
2023-02-11T04:04:13.358Z,55.95
2023-02-11T04:06:00.415Z,57.52
2023-02-11T04:06:14.065Z,56.63
2023-02-11T04:07:13.031Z,58.86
2023-02-11T04:08:13.027Z,55.55
2023-02-11T04:09:13.034Z,55.73
2023-02-11T04:10:13.045Z,59.54
2023-02-11T04:11:12.993Z,56.36
2023-02-11T04:12:13.006Z,56.21
2023-02-11T04:13:12.989Z,56.21
2023-02-11T04:14:12.974Z,56.17
2023-02-11T04:15:12.975Z,56.76
2023-02-11T04:16:13.031Z,56.46
2023-02-11T04:17:12.953Z,55.40
2023-02-11T04:18:12.941Z,55.74
2023-02-11T04:19:12.959Z,55.75
2023-02-11T04:20:12.951Z,55.81
2023-02-11T04:21:12.927Z,56.02
2023-02-11T04:22:12.970Z,56.53
2023-02-11T04:23:12.940Z,56.65
2023-02-11T04:24:12.910Z,57.33
2023-02-11T04:25:12.909Z,56.08
2023-02-11T04:26:12.883Z,55.76
2023-02-11T04:27:12.915Z,55.70
2023-02-11T04:28:12.938Z,55.87
2023-02-11T04:29:12.920Z,55.92
2023-02-11T04:30:12.861Z,56.06
2023-02-11T04:31:12.994Z,55.64
2023-02-11T04:32:12.966Z,55.60
2023-02-11T04:33:12.845Z,55.64
2023-02-11T04:34:12.869Z,56.12
2023-02-11T04:35:12.814Z,56.49
2023-02-11T04:36:12.832Z,56.18
2023-02-11T04:37:12.813Z,57.63
2023-02-11T04:38:12.792Z,57.73
2023-02-11T04:39:12.815Z,57.30
2023-02-11T04:40:12.819Z,56.43
2023-02-11T04:41:12.804Z,56.45
2023-02-11T04:42:12.781Z,56.51
2023-02-11T04:43:12.760Z,56.00
2023-02-11T04:44:12.793Z,56.55
2023-02-11T04:45:12.762Z,57.30
2023-02-11T04:46:12.932Z,56.35
2023-02-11T04:47:12.761Z,56.76
2023-02-11T04:48:12.736Z,55.75
2023-02-11T04:49:12.722Z,55.54
2023-02-11T04:50:12.730Z,56.29
2023-02-11T04:51:12.712Z,55.96
2023-02-11T04:52:12.746Z,55.45
2023-02-11T04:53:12.699Z,56.48
2023-02-11T04:54:12.713Z,57.04
2023-02-11T04:55:12.690Z,56.53
2023-02-11T04:56:12.715Z,56.81
2023-02-11T04:57:12.698Z,55.72
2023-02-11T04:58:12.702Z,56.12
2023-02-11T04:59:12.652Z,57.06
2023-02-11T05:00:12.686Z,57.74
2023-02-11T05:01:12.692Z,55.72
2023-02-11T05:02:12.673Z,56.56
2023-02-11T05:03:12.643Z,56.39
2023-02-11T05:04:12.709Z,56.60
2023-02-11T05:05:12.650Z,55.86
2023-02-11T05:06:12.625Z,56.19
2023-02-11T05:07:12.600Z,58.03
2023-02-11T05:08:12.590Z,58.00
2023-02-11T05:09:12.593Z,56.48
2023-02-11T05:10:12.926Z,57.01
2023-02-11T05:11:12.569Z,56.77
2023-02-11T05:12:12.576Z,57.09
2023-02-11T05:13:12.564Z,59.44
2023-02-11T05:14:12.550Z,59.23
2023-02-11T05:15:12.543Z,56.67
2023-02-11T05:16:12.672Z,56.23
2023-02-11T05:17:12.536Z,57.91
2023-02-11T05:18:12.534Z,56.26
2023-02-11T05:19:12.537Z,56.08
2023-02-11T05:20:12.541Z,57.62
2023-02-11T05:21:12.524Z,56.63
2023-02-11T05:22:12.540Z,57.40
2023-02-11T05:23:12.494Z,58.37
2023-02-11T05:24:12.465Z,56.45
2023-02-11T05:25:12.463Z,56.97
2023-02-11T05:26:12.469Z,56.95
2023-02-11T05:27:12.473Z,59.39
2023-02-11T05:28:12.552Z,58.36
2023-02-11T05:29:12.438Z,57.71
2023-02-11T05:30:12.440Z,57.64
2023-02-11T05:31:12.497Z,57.78
2023-02-11T05:32:12.447Z,56.61
2023-02-11T05:33:12.410Z,57.82
2023-02-11T05:34:12.480Z,57.97
2023-02-11T05:35:12.408Z,56.04
2023-02-11T05:36:12.447Z,58.18
2023-02-11T05:37:12.410Z,56.65
2023-02-11T05:38:12.387Z,56.74
2023-02-11T05:39:12.385Z,56.75
2023-02-11T05:40:12.447Z,56.56
2023-02-11T05:41:12.364Z,56.35
2023-02-11T05:42:12.339Z,57.31
2023-02-11T05:43:12.371Z,56.86
2023-02-11T05:44:12.335Z,56.70
2023-02-11T05:45:12.327Z,59.13
2023-02-11T05:46:12.385Z,56.23
2023-02-11T05:47:12.326Z,57.18
2023-02-11T05:48:12.324Z,57.82
2023-02-11T05:49:12.288Z,56.90
2023-02-11T05:50:12.347Z,58.49
2023-02-11T05:51:12.335Z,57.95
2023-02-11T05:52:12.345Z,57.28
2023-02-11T05:53:12.280Z,56.73
2023-02-11T05:54:12.281Z,57.20
2023-02-11T05:55:12.261Z,56.51
2023-02-11T05:56:12.251Z,57.02
2023-02-11T05:57:12.235Z,56.29
2023-02-11T05:58:12.307Z,58.07
2023-02-11T05:59:12.225Z,56.70
2023-02-11T06:00:12.237Z,56.33
2023-02-11T06:01:12.249Z,56.32
2023-02-11T06:02:12.253Z,58.32
2023-02-11T06:03:12.197Z,56.88
2023-02-11T06:04:12.242Z,58.84
2023-02-11T06:05:12.199Z,58.29
2023-02-11T06:06:12.211Z,57.65
2023-02-11T06:07:12.203Z,57.50
2023-02-11T06:08:12.179Z,58.63
2023-02-11T06:09:12.178Z,58.81
2023-02-11T06:10:12.559Z,58.42
2023-02-11T06:11:12.161Z,59.11
2023-02-11T06:12:12.176Z,58.67
2023-02-11T06:13:12.128Z,58.72
2023-02-11T06:14:12.174Z,58.50
2023-02-11T06:15:12.119Z,59.63
2023-02-11T06:16:12.253Z,58.39
2023-02-11T06:17:14.611Z,58.21
2023-02-11T06:18:12.123Z,58.85
2023-02-11T06:19:12.105Z,59.74
2023-02-11T06:20:12.107Z,57.64
2023-02-11T06:21:12.094Z,58.20
2023-02-11T06:22:12.092Z,58.13
2023-02-11T06:23:12.088Z,59.46
2023-02-11T06:24:12.079Z,60.59
2023-02-11T06:25:12.075Z,58.06
2023-02-11T06:26:12.044Z,60.50
2023-02-11T06:27:12.053Z,58.65
2023-02-11T06:28:12.130Z,58.42
2023-02-11T06:29:12.035Z,60.25
2023-02-11T06:30:12.078Z,58.69
2023-02-11T06:31:12.220Z,58.54
2023-02-11T06:32:33.590Z,59.79
2023-02-11T06:33:13.063Z,59.30
2023-02-11T06:34:12.018Z,58.21
2023-02-11T06:35:12.567Z,58.82
2023-02-11T06:36:11.976Z,57.42
2023-02-11T06:37:11.995Z,58.87
2023-02-11T06:38:11.964Z,57.61
2023-02-11T06:39:11.983Z,57.40
2023-02-11T06:40:11.964Z,58.28
2023-02-11T06:41:11.932Z,58.98
2023-02-11T06:42:11.945Z,59.69
2023-02-11T06:43:11.945Z,58.12
2023-02-11T06:44:11.927Z,58.60
2023-02-11T06:45:11.976Z,60.86
2023-02-11T06:46:11.922Z,59.70
2023-02-11T06:47:11.907Z,59.19
2023-02-11T06:48:11.896Z,57.23
2023-02-11T06:49:11.906Z,57.22
2023-02-11T06:50:11.889Z,58.29
2023-02-11T06:51:11.926Z,58.55
2023-02-11T06:52:11.868Z,58.57
2023-02-11T06:53:11.844Z,59.90
2023-02-11T06:54:11.858Z,59.15
2023-02-11T06:55:11.856Z,58.14
2023-02-11T06:56:11.848Z,56.84
2023-02-11T06:57:11.859Z,57.61
2023-02-11T06:58:11.799Z,57.91
2023-02-11T06:59:11.825Z,58.83
2023-02-11T07:00:11.824Z,60.06
2023-02-11T07:01:11.820Z,58.78
2023-02-11T07:02:11.842Z,59.51
2023-02-11T07:03:11.930Z,60.93
2023-02-11T07:04:11.767Z,61.07
2023-02-11T07:05:11.764Z,59.88
2023-02-11T07:06:11.750Z,58.44
2023-02-11T07:07:11.746Z,58.82
2023-02-11T07:08:11.730Z,57.43
2023-02-11T07:09:11.787Z,58.62
2023-02-11T07:10:11.778Z,58.89
2023-02-11T07:11:11.726Z,56.90
2023-02-11T07:12:11.706Z,57.48
2023-02-11T07:13:11.775Z,60.01
2023-02-11T07:14:11.719Z,60.01
2023-02-11T07:15:11.958Z,62.10
2023-02-11T07:16:11.704Z,59.23
2023-02-11T07:17:11.667Z,58.68
2023-02-11T07:18:14.538Z,59.80
2023-02-11T07:19:11.655Z,60.07
2023-02-11T07:20:11.638Z,58.78
2023-02-11T07:21:11.688Z,57.38
2023-02-11T07:22:11.639Z,60.11
2023-02-11T07:23:11.625Z,58.64
2023-02-11T07:24:11.736Z,57.18
2023-02-11T07:25:11.616Z,57.87
2023-02-11T07:26:11.602Z,57.33
2023-02-11T07:27:11.665Z,59.93
2023-02-11T07:28:11.680Z,59.25
2023-02-11T07:29:11.602Z,62.02
2023-02-11T07:30:11.573Z,58.30
2023-02-11T07:31:11.644Z,58.14
2023-02-11T07:32:11.605Z,58.52
2023-02-11T07:33:11.592Z,58.43
2023-02-11T07:34:11.557Z,59.79
2023-02-11T07:35:11.534Z,60.09
2023-02-11T07:36:11.530Z,59.61
2023-02-11T07:37:11.548Z,59.26
2023-02-11T07:38:11.513Z,60.00
2023-02-11T07:39:11.565Z,61.13
2023-02-11T07:40:11.525Z,59.40
2023-02-11T07:41:13.444Z,58.43
2023-02-11T07:42:11.486Z,58.25
2023-02-11T07:43:11.502Z,59.00
2023-02-11T07:44:11.512Z,59.58
2023-02-11T07:45:11.493Z,60.53
2023-02-11T07:46:11.513Z,59.90
2023-02-11T07:47:11.475Z,62.29
2023-02-11T07:48:11.448Z,60.43
2023-02-11T07:49:11.429Z,60.90
2023-02-11T07:50:11.486Z,59.95
2023-02-11T07:51:11.472Z,59.62
2023-02-11T07:52:12.526Z,60.03
2023-02-11T07:53:11.446Z,60.65
2023-02-11T07:54:11.414Z,59.77
2023-02-11T07:55:11.417Z,59.98
2023-02-11T07:56:11.378Z,63.21
2023-02-11T07:57:11.439Z,61.75
2023-02-11T07:58:11.392Z,58.91
2023-02-11T07:59:11.359Z,59.35
2023-02-11T08:00:11.361Z,60.23
2023-02-11T08:01:11.375Z,59.54
2023-02-11T08:02:11.434Z,61.75
2023-02-11T08:03:11.375Z,60.28
2023-02-11T08:04:11.323Z,58.92
2023-02-11T08:05:11.331Z,58.98
2023-02-11T08:06:11.317Z,58.99
2023-02-11T08:07:11.321Z,59.80
2023-02-11T08:08:11.310Z,61.91
2023-02-11T08:09:11.337Z,61.52
2023-02-11T08:10:11.281Z,59.33
2023-02-11T08:11:11.296Z,60.06
2023-02-11T08:12:11.293Z,60.61
2023-02-11T08:13:11.259Z,58.65
2023-02-11T08:14:11.271Z,60.71
2023-02-11T08:15:11.297Z,59.48
2023-02-11T08:16:11.270Z,61.00
2023-02-11T08:17:11.222Z,59.58
2023-02-11T08:18:11.249Z,60.92
2023-02-11T08:19:11.236Z,59.62
2023-02-11T08:20:11.205Z,58.94
2023-02-11T08:21:27.934Z,60.81
2023-02-11T08:22:12.219Z,61.52
2023-02-11T08:23:11.186Z,59.35
2023-02-11T08:24:11.180Z,60.48
2023-02-11T08:25:23.410Z,59.01
2023-02-11T08:26:11.170Z,62.61
2023-02-11T08:27:11.214Z,58.48
2023-02-11T08:28:11.266Z,59.75
2023-02-11T08:29:11.139Z,58.74
2023-02-11T08:30:11.133Z,59.71
2023-02-11T08:31:11.285Z,60.07
2023-02-11T08:32:11.183Z,61.05
2023-02-11T08:33:11.179Z,60.85
2023-02-11T08:34:11.114Z,60.72
2023-02-11T08:35:11.121Z,59.63
2023-02-11T08:36:11.127Z,61.57
2023-02-11T08:37:11.100Z,62.34
2023-02-11T08:38:11.082Z,59.81
2023-02-11T08:39:20.260Z,63.38
2023-02-11T08:40:12.085Z,59.68
2023-02-11T08:41:11.062Z,58.70
2023-02-11T08:42:11.056Z,60.21
2023-02-11T08:43:11.069Z,61.61
2023-02-11T08:44:11.027Z,62.62
2023-02-11T08:45:11.117Z,61.43
2023-02-11T08:46:11.090Z,60.15
2023-02-11T08:47:11.002Z,60.80
2023-02-11T08:48:11.044Z,61.98
2023-02-11T08:49:11.011Z,61.69
2023-02-11T08:50:11.025Z,61.01
2023-02-11T08:51:11.023Z,60.39
2023-02-11T08:52:10.976Z,58.64
2023-02-11T08:53:10.974Z,59.75
2023-02-11T08:54:10.971Z,58.23
2023-02-11T08:55:10.970Z,60.27
2023-02-11T08:56:13.349Z,59.86
2023-02-11T08:57:10.982Z,60.25
2023-02-11T08:58:10.961Z,58.55
2023-02-11T08:59:10.935Z,59.96
2023-02-11T09:00:10.926Z,61.44
2023-02-11T09:01:10.959Z,60.12
2023-02-11T09:02:10.922Z,58.50
2023-02-11T09:03:10.934Z,57.07
2023-02-11T09:04:10.877Z,59.14
2023-02-11T09:05:10.905Z,61.20
2023-02-11T09:06:10.920Z,59.47
2023-02-11T09:07:10.867Z,58.35
2023-02-11T09:08:10.849Z,60.60
2023-02-11T09:09:10.906Z,60.65
2023-02-11T09:10:10.868Z,62.08
2023-02-11T09:11:10.822Z,60.00
2023-02-11T09:12:10.820Z,59.15
2023-02-11T09:18:12.053Z,62.11
2023-02-11T09:19:10.790Z,59.80
2023-02-11T09:20:10.986Z,58.69
2023-02-11T09:21:10.791Z,61.54
2023-02-11T09:22:10.768Z,61.38
2023-02-11T09:23:10.766Z,58.99
2023-02-11T09:24:10.823Z,60.29
2023-02-11T09:25:10.775Z,61.65
2023-02-11T09:26:10.751Z,61.49
2023-02-11T09:27:10.754Z,61.16
2023-02-11T09:28:10.853Z,59.46
2023-02-11T09:29:10.757Z,60.75
2023-02-11T09:30:10.732Z,59.64
2023-02-11T09:31:10.894Z,59.55
2023-02-11T09:32:10.873Z,59.24
2023-02-11T09:33:10.690Z,61.38
2023-02-11T09:34:10.678Z,60.43
2023-02-11T09:35:10.656Z,59.95
2023-02-11T09:36:10.722Z,62.17
2023-02-11T09:37:10.653Z,59.63
2023-02-11T09:38:10.663Z,59.49
2023-02-11T09:39:10.640Z,60.36
2023-02-11T09:40:10.663Z,60.40
2023-02-11T09:41:10.694Z,60.58
2023-02-11T09:42:10.716Z,61.35
2023-02-11T09:43:10.611Z,60.03
2023-02-11T09:44:10.627Z,61.56
2023-02-11T09:45:10.599Z,61.91
2023-02-11T09:46:10.664Z,61.37
2023-02-11T09:47:10.635Z,62.34
2023-02-11T09:48:10.622Z,61.51
2023-02-11T09:49:10.566Z,60.76
2023-02-11T09:50:10.558Z,63.57
2023-02-11T09:51:10.574Z,61.19
2023-02-11T09:52:10.556Z,61.26
2023-02-11T09:53:10.532Z,61.80
2023-02-11T09:54:10.588Z,60.38
2023-02-11T09:55:10.544Z,60.47
2023-02-11T09:56:10.505Z,62.23
2023-02-11T09:57:19.641Z,62.01
2023-02-11T09:58:11.502Z,59.92
2023-02-11T09:59:10.504Z,60.81
2023-02-11T10:00:10.546Z,62.46
2023-02-11T10:01:10.509Z,60.97
2023-02-11T10:02:10.472Z,62.36
2023-02-11T10:03:10.473Z,62.55
2023-02-11T10:04:10.520Z,60.12
2023-02-11T10:05:10.443Z,61.27
2023-02-11T10:06:10.498Z,61.58
2023-02-11T10:07:10.431Z,60.16
2023-02-11T10:08:10.461Z,57.94
2023-02-11T10:09:10.424Z,60.81
2023-02-11T10:10:10.437Z,62.46
2023-02-11T10:11:17.595Z,61.29
2023-02-11T10:12:11.453Z,59.07
2023-02-11T10:13:10.396Z,61.07
2023-02-11T10:14:10.397Z,60.03
2023-02-11T10:15:10.408Z,60.43
2023-02-11T10:16:10.470Z,60.94
2023-02-11T10:17:10.388Z,60.72
2023-02-11T10:18:10.395Z,60.46
2023-02-11T10:19:10.365Z,61.20
2023-02-11T10:20:10.353Z,60.62
2023-02-11T10:21:10.345Z,59.61
2023-02-11T10:22:10.354Z,60.97
2023-02-11T10:23:10.345Z,61.85
2023-02-11T10:24:10.575Z,62.56
2023-02-11T10:25:10.343Z,60.25
2023-02-11T10:26:10.325Z,60.32
2023-02-11T10:27:10.323Z,60.45
2023-02-11T10:28:10.341Z,61.61
2023-02-11T10:29:10.307Z,60.27
2023-02-11T10:30:10.336Z,59.71
2023-02-11T10:31:10.395Z,60.36
2023-02-11T10:32:10.292Z,60.41
2023-02-11T10:33:10.275Z,61.80
2023-02-11T10:34:10.253Z,61.33
2023-02-11T10:35:10.240Z,61.40
2023-02-11T10:36:10.285Z,60.34
2023-02-11T10:37:10.241Z,60.19
2023-02-11T10:38:10.257Z,61.82
2023-02-11T10:39:10.210Z,61.29
2023-02-11T10:40:10.204Z,62.56
2023-02-11T10:41:10.217Z,60.47
2023-02-11T10:42:10.224Z,61.24
2023-02-11T10:43:10.190Z,60.90
2023-02-11T10:44:10.202Z,62.25
2023-02-11T10:45:10.165Z,61.10
2023-02-11T10:46:10.248Z,59.66
2023-02-11T10:47:10.166Z,60.53
2023-02-11T10:48:10.186Z,61.09
2023-02-11T10:49:10.122Z,61.18
2023-02-11T10:50:10.144Z,60.46
2023-02-11T10:51:11.021Z,61.27
2023-02-11T10:52:10.127Z,62.03
2023-02-11T10:53:10.108Z,62.40
2023-02-11T10:54:12.611Z,62.29
2023-02-11T10:55:10.101Z,62.30
2023-02-11T10:56:10.130Z,61.03
2023-02-11T10:57:10.072Z,60.41
2023-02-11T10:58:10.088Z,60.83
2023-02-11T10:59:10.104Z,60.30
2023-02-11T11:00:10.088Z,61.04
2023-02-11T11:01:23.450Z,61.94
2023-02-11T11:02:11.118Z,62.42
2023-02-11T11:03:10.037Z,62.10
2023-02-11T11:04:10.041Z,59.85
2023-02-11T11:05:10.058Z,60.31
2023-02-11T11:06:10.082Z,60.30
2023-02-11T11:07:10.001Z,59.95
2023-02-11T11:08:10.005Z,60.30
2023-02-11T11:09:09.997Z,61.29
2023-02-11T11:10:10.003Z,61.05
2023-02-11T11:11:10.034Z,61.46
2023-02-11T11:12:10.009Z,60.82
2023-02-11T11:13:09.972Z,60.31
2023-02-11T11:14:09.957Z,59.72
2023-02-11T11:15:09.966Z,60.59
2023-02-11T11:16:10.038Z,59.95
2023-02-11T11:17:09.971Z,61.07
2023-02-11T11:18:20.840Z,63.60
2023-02-11T11:19:10.937Z,62.04
2023-02-11T11:20:09.938Z,61.58
2023-02-11T11:21:09.902Z,61.00
2023-02-11T11:22:09.915Z,60.30
2023-02-11T11:23:09.998Z,61.25
2023-02-11T11:24:09.939Z,60.97
2023-02-11T11:25:09.884Z,60.51
2023-02-11T11:26:09.882Z,61.45
2023-02-11T11:27:09.855Z,60.09
2023-02-11T11:28:09.868Z,61.86
2023-02-11T11:29:09.865Z,62.03
2023-02-11T11:30:10.070Z,61.13
2023-02-11T11:31:09.968Z,61.32
2023-02-11T11:32:09.895Z,60.62
2023-02-11T11:33:09.824Z,60.23
2023-02-11T11:34:09.852Z,61.07
2023-02-11T11:35:09.810Z,61.79
2023-02-11T11:36:09.873Z,62.28
2023-02-11T11:37:09.809Z,63.23
2023-02-11T11:38:09.806Z,61.78
2023-02-11T11:39:09.796Z,60.99
2023-02-11T11:40:09.792Z,62.43
2023-02-11T11:41:09.779Z,59.82
2023-02-11T11:42:09.835Z,62.65
2023-02-11T11:43:09.742Z,61.38
2023-02-11T11:44:09.739Z,60.55
2023-02-11T11:45:09.748Z,60.47
2023-02-11T11:46:09.772Z,61.48
2023-02-11T11:47:09.715Z,62.38
2023-02-11T11:48:09.735Z,60.38
2023-02-11T11:49:09.724Z,60.72
2023-02-11T11:50:09.735Z,60.56
2023-02-11T11:51:09.725Z,60.48
2023-02-11T11:52:09.705Z,60.75
2023-02-11T11:53:09.691Z,60.78
2023-02-11T11:54:09.722Z,60.85
2023-02-11T11:55:09.657Z,62.58
2023-02-11T11:56:09.668Z,60.31
2023-02-11T11:57:09.643Z,62.13
2023-02-11T11:58:09.691Z,61.46
2023-02-11T11:59:09.660Z,59.39
2023-02-11T12:00:09.751Z,62.39
2023-02-11T12:01:09.645Z,59.67
2023-02-11T12:02:09.734Z,61.68
2023-02-11T12:03:09.738Z,62.28
2023-02-11T12:04:09.611Z,59.79
2023-02-11T12:05:09.590Z,61.11
2023-02-11T12:06:09.642Z,61.98
2023-02-11T12:07:09.629Z,62.21
2023-02-11T12:08:09.585Z,62.66
2023-02-11T12:09:09.616Z,61.14
2023-02-11T12:10:09.579Z,62.26
2023-02-11T12:11:09.602Z,59.63
2023-02-11T12:12:09.588Z,60.82
2023-02-11T12:13:09.533Z,61.29
2023-02-11T12:14:09.569Z,59.59
2023-02-11T12:15:09.525Z,62.11
2023-02-11T12:16:09.538Z,60.34
2023-02-11T12:17:09.504Z,61.66
2023-02-11T12:18:09.535Z,61.84
2023-02-11T12:19:09.520Z,62.73
2023-02-11T12:20:09.503Z,60.20
2023-02-11T12:21:09.475Z,60.93
2023-02-11T12:22:09.457Z,61.40
2023-02-11T12:23:09.515Z,62.26
2023-02-11T12:24:09.501Z,59.83
2023-02-11T12:25:09.450Z,57.85
2023-02-11T12:26:09.468Z,61.29
2023-02-11T12:27:09.415Z,60.44
2023-02-11T12:28:09.490Z,60.03
2023-02-11T12:29:09.420Z,61.10
2023-02-11T12:30:09.656Z,59.79
2023-02-11T12:31:11.411Z,59.25
2023-02-11T12:32:09.551Z,59.62
2023-02-11T12:33:09.396Z,59.36
2023-02-11T12:34:09.371Z,59.14
2023-02-11T12:35:09.372Z,58.66
2023-02-11T12:36:09.445Z,62.17
2023-02-11T12:37:09.371Z,62.11
2023-02-11T12:38:09.408Z,62.62
2023-02-11T12:39:09.419Z,61.69
2023-02-11T12:40:09.373Z,61.19
2023-02-11T12:41:09.319Z,61.19
2023-02-11T12:42:09.351Z,59.09
2023-02-11T12:43:09.355Z,61.01
2023-02-11T12:44:09.299Z,60.34
2023-02-11T12:45:09.284Z,60.97
2023-02-11T12:46:18.006Z,60.82
2023-02-11T12:47:09.270Z,61.11
2023-02-11T12:48:09.299Z,61.32
2023-02-11T12:49:09.328Z,60.13
2023-02-11T12:50:09.294Z,61.74
2023-02-11T12:51:09.302Z,59.88
2023-02-11T12:52:09.298Z,61.26
2023-02-11T12:53:09.239Z,61.67
2023-02-11T12:54:09.261Z,61.85
2023-02-11T12:55:09.224Z,61.72
2023-02-11T12:56:09.273Z,61.43
2023-02-11T12:57:09.227Z,63.15